sensor_id;sensor_type;location;lat;lon;timestamp;temperature;humidity
4461;DHT22;2243;48.812;9.232;2023-12-20T00:00:52;7.50;99.90
4461;DHT22;2243;48.812;9.232;2023-12-20T00:03:23;7.60;99.90
4461;DHT22;2243;48.812;9.232;2023-12-20T00:05:54;7.60;99.90
4461;DHT22;2243;48.812;9.232;2023-12-20T00:08:26;7.70;99.90
4461;DHT22;2243;48.812;9.232;2023-12-20T00:10:57;7.50;99.90
4461;DHT22;2243;48.812;9.232;2023-12-20T00:13:28;7.50;99.90
4461;DHT22;2243;48.812;9.232;2023-12-20T00:15:59;7.50;99.90
4461;DHT22;2243;48.812;9.232;2023-12-20T00:18:30;7.60;99.90
4461;DHT22;2243;48.812;9.232;2023-12-20T00:21:01;7.60;99.90
4461;DHT22;2243;48.812;9.232;2023-12-20T00:23:32;7.60;99.90
4461;DHT22;2243;48.812;9.232;2023-12-20T00:26:03;7.70;99.90
4461;DHT22;2243;48.812;9.232;2023-12-20T00:28:34;7.60;99.90
4461;DHT22;2243;48.812;9.232;2023-12-20T00:31:05;7.60;99.90
4461;DHT22;2243;48.812;9.232;2023-12-20T00:33:36;7.60;99.90
4461;DHT22;2243;48.812;9.232;2023-12-20T00:36:08;7.60;99.90
4461;DHT22;2243;48.812;9.232;2023-12-20T00:38:39;7.50;99.90
4461;DHT22;2243;48.812;9.232;2023-12-20T00:41:10;7.40;99.90
4461;DHT22;2243;48.812;9.232;2023-12-20T00:43:41;7.40;99.90
4461;DHT22;2243;48.812;9.232;2023-12-20T00:46:12;7.40;99.90
4461;DHT22;2243;48.812;9.232;2023-12-20T00:48:43;7.50;99.90
4461;DHT22;2243;48.812;9.232;2023-12-20T00:51:16;7.40;99.90
4461;DHT22;2243;48.812;9.232;2023-12-20T00:53:47;7.30;99.90
4461;DHT22;2243;48.812;9.232;2023-12-20T00:56:38;7.30;99.90
4461;DHT22;2243;48.812;9.232;2023-12-20T00:59:09;7.40;99.90
4461;DHT22;2243;48.812;9.232;2023-12-20T01:01:41;7.30;99.90
4461;DHT22;2243;48.812;9.232;2023-12-20T01:04:12;7.30;99.90
4461;DHT22;2243;48.812;9.232;2023-12-20T01:06:44;7.20;99.90
4461;DHT22;2243;48.812;9.232;2023-12-20T01:09:15;7.10;99.90
4461;DHT22;2243;48.812;9.232;2023-12-20T01:11:45;7.10;99.90
4461;DHT22;2243;48.812;9.232;2023-12-20T01:14:17;7.10;99.90
4461;DHT22;2243;48.812;9.232;2023-12-20T01:16:48;7.00;99.90
4461;DHT22;2243;48.812;9.232;2023-12-20T01:19:18;7.00;99.90
4461;DHT22;2243;48.812;9.232;2023-12-20T01:21:50;7.00;99.90
4461;DHT22;2243;48.812;9.232;2023-12-20T01:24:21;6.90;99.90
4461;DHT22;2243;48.812;9.232;2023-12-20T01:26:52;6.90;99.90
4461;DHT22;2243;48.812;9.232;2023-12-20T01:29:23;6.90;99.90
4461;DHT22;2243;48.812;9.232;2023-12-20T01:31:54;6.80;99.90
4461;DHT22;2243;48.812;9.232;2023-12-20T01:34:24;6.90;99.90
4461;DHT22;2243;48.812;9.232;2023-12-20T01:36:55;6.80;99.90
4461;DHT22;2243;48.812;9.232;2023-12-20T01:39:27;6.80;99.90
4461;DHT22;2243;48.812;9.232;2023-12-20T01:41:59;6.80;99.90
4461;DHT22;2243;48.812;9.232;2023-12-20T01:44:30;6.80;99.90
4461;DHT22;2243;48.812;9.232;2023-12-20T01:47:02;6.80;99.90
4461;DHT22;2243;48.812;9.232;2023-12-20T01:49:33;6.70;99.90
4461;DHT22;2243;48.812;9.232;2023-12-20T01:52:04;6.70;99.90
4461;DHT22;2243;48.812;9.232;2023-12-20T01:54:36;6.70;99.90
4461;DHT22;2243;48.812;9.232;2023-12-20T01:57:08;6.60;99.90
4461;DHT22;2243;48.812;9.232;2023-12-20T01:59:40;6.70;99.90
4461;DHT22;2243;48.812;9.232;2023-12-20T02:02:11;6.70;99.90
4461;DHT22;2243;48.812;9.232;2023-12-20T02:04:43;6.70;99.90
4461;DHT22;2243;48.812;9.232;2023-12-20T02:07:14;6.70;99.90
4461;DHT22;2243;48.812;9.232;2023-12-20T02:09:46;6.70;99.90
4461;DHT22;2243;48.812;9.232;2023-12-20T02:12:18;6.70;99.90
4461;DHT22;2243;48.812;9.232;2023-12-20T02:14:49;6.70;99.90
4461;DHT22;2243;48.812;9.232;2023-12-20T02:17:20;6.60;99.90
4461;DHT22;2243;48.812;9.232;2023-12-20T02:19:51;6.70;99.90
4461;DHT22;2243;48.812;9.232;2023-12-20T02:22:22;6.60;99.90
4461;DHT22;2243;48.812;9.232;2023-12-20T02:24:53;6.60;99.90
4461;DHT22;2243;48.812;9.232;2023-12-20T02:27:24;6.60;99.90
4461;DHT22;2243;48.812;9.232;2023-12-20T02:29:55;6.60;99.90
4461;DHT22;2243;48.812;9.232;2023-12-20T02:32:26;6.70;99.90
4461;DHT22;2243;48.812;9.232;2023-12-20T02:34:58;6.60;99.90
4461;DHT22;2243;48.812;9.232;2023-12-20T02:37:29;6.60;99.90
4461;DHT22;2243;48.812;9.232;2023-12-20T02:40:00;6.60;99.90
4461;DHT22;2243;48.812;9.232;2023-12-20T02:42:31;6.70;99.90
4461;DHT22;2243;48.812;9.232;2023-12-20T02:45:02;6.70;99.90
4461;DHT22;2243;48.812;9.232;2023-12-20T02:47:34;6.60;99.90
4461;DHT22;2243;48.812;9.232;2023-12-20T02:50:05;6.60;99.90
4461;DHT22;2243;48.812;9.232;2023-12-20T02:52:37;6.60;99.90
4461;DHT22;2243;48.812;9.232;2023-12-20T02:55:07;6.60;99.90
4461;DHT22;2243;48.812;9.232;2023-12-20T02:57:38;6.60;99.90
4461;DHT22;2243;48.812;9.232;2023-12-20T03:00:13;6.50;99.90
4461;DHT22;2243;48.812;9.232;2023-12-20T03:02:44;6.50;99.90
4461;DHT22;2243;48.812;9.232;2023-12-20T03:05:15;6.50;99.90
4461;DHT22;2243;48.812;9.232;2023-12-20T03:07:46;6.50;99.90
4461;DHT22;2243;48.812;9.232;2023-12-20T03:10:19;6.60;99.90
4461;DHT22;2243;48.812;9.232;2023-12-20T03:12:57;6.50;99.90
4461;DHT22;2243;48.812;9.232;2023-12-20T03:15:28;6.60;99.90
4461;DHT22;2243;48.812;9.232;2023-12-20T03:17:58;6.60;99.90
4461;DHT22;2243;48.812;9.232;2023-12-20T03:20:30;6.60;99.90
4461;DHT22;2243;48.812;9.232;2023-12-20T03:23:04;6.60;99.90
4461;DHT22;2243;48.812;9.232;2023-12-20T03:25:35;6.70;99.90
4461;DHT22;2243;48.812;9.232;2023-12-20T03:28:06;6.70;99.90
4461;DHT22;2243;48.812;9.232;2023-12-20T03:30:37;6.70;99.90
4461;DHT22;2243;48.812;9.232;2023-12-20T03:33:08;6.70;99.90
4461;DHT22;2243;48.812;9.232;2023-12-20T03:35:39;6.80;99.90
4461;DHT22;2243;48.812;9.232;2023-12-20T03:38:11;6.70;99.90
4461;DHT22;2243;48.812;9.232;2023-12-20T03:40:42;6.70;99.90
4461;DHT22;2243;48.812;9.232;2023-12-20T03:43:13;6.70;99.90
4461;DHT22;2243;48.812;9.232;2023-12-20T03:45:44;6.60;99.90
4461;DHT22;2243;48.812;9.232;2023-12-20T03:48:15;6.50;99.90
4461;DHT22;2243;48.812;9.232;2023-12-20T03:50:46;6.50;99.90
4461;DHT22;2243;48.812;9.232;2023-12-20T03:53:17;6.50;99.90
4461;DHT22;2243;48.812;9.232;2023-12-20T03:55:48;6.50;99.90
4461;DHT22;2243;48.812;9.232;2023-12-20T03:58:19;6.40;99.90
4461;DHT22;2243;48.812;9.232;2023-12-20T04:00:50;6.40;99.90
4461;DHT22;2243;48.812;9.232;2023-12-20T04:03:22;6.30;99.90
4461;DHT22;2243;48.812;9.232;2023-12-20T04:05:53;6.30;99.90
4461;DHT22;2243;48.812;9.232;2023-12-20T04:08:24;6.20;99.90
4461;DHT22;2243;48.812;9.232;2023-12-20T04:10:55;6.20;99.90
4461;DHT22;2243;48.812;9.232;2023-12-20T04:13:26;6.10;99.90
4461;DHT22;2243;48.812;9.232;2023-12-20T04:15:57;6.10;99.90
4461;DHT22;2243;48.812;9.232;2023-12-20T04:18:28;6.10;99.90
4461;DHT22;2243;48.812;9.232;2023-12-20T04:20:59;6.10;99.90
4461;DHT22;2243;48.812;9.232;2023-12-20T04:23:30;6.10;99.90
4461;DHT22;2243;48.812;9.232;2023-12-20T04:26:01;6.10;99.90
4461;DHT22;2243;48.812;9.232;2023-12-20T04:28:32;6.10;99.90
4461;DHT22;2243;48.812;9.232;2023-12-20T04:31:03;6.20;99.90
4461;DHT22;2243;48.812;9.232;2023-12-20T04:33:34;6.10;99.90
4461;DHT22;2243;48.812;9.232;2023-12-20T04:36:05;6.10;99.90
4461;DHT22;2243;48.812;9.232;2023-12-20T04:38:36;6.00;99.90
4461;DHT22;2243;48.812;9.232;2023-12-20T04:41:07;6.00;99.90
4461;DHT22;2243;48.812;9.232;2023-12-20T04:43:38;6.10;99.90
4461;DHT22;2243;48.812;9.232;2023-12-20T04:46:09;6.10;99.90
4461;DHT22;2243;48.812;9.232;2023-12-20T04:48:40;6.10;99.90
4461;DHT22;2243;48.812;9.232;2023-12-20T04:51:11;6.10;99.90
4461;DHT22;2243;48.812;9.232;2023-12-20T04:53:42;6.10;99.90
4461;DHT22;2243;48.812;9.232;2023-12-20T04:56:13;6.20;99.90
4461;DHT22;2243;48.812;9.232;2023-12-20T04:58:44;6.30;99.90
4461;DHT22;2243;48.812;9.232;2023-12-20T05:01:15;6.20;99.90
4461;DHT22;2243;48.812;9.232;2023-12-20T05:03:46;6.30;99.90
4461;DHT22;2243;48.812;9.232;2023-12-20T05:06:17;6.30;99.90
4461;DHT22;2243;48.812;9.232;2023-12-20T05:08:48;6.30;99.90
4461;DHT22;2243;48.812;9.232;2023-12-20T05:11:19;6.40;99.90
4461;DHT22;2243;48.812;9.232;2023-12-20T05:13:50;6.40;99.90
4461;DHT22;2243;48.812;9.232;2023-12-20T05:16:21;6.40;99.90
4461;DHT22;2243;48.812;9.232;2023-12-20T05:18:52;6.30;99.90
4461;DHT22;2243;48.812;9.232;2023-12-20T05:21:23;6.40;99.90
4461;DHT22;2243;48.812;9.232;2023-12-20T05:23:54;6.30;99.90
4461;DHT22;2243;48.812;9.232;2023-12-20T05:26:25;6.20;99.90
4461;DHT22;2243;48.812;9.232;2023-12-20T05:28:56;6.30;99.90
4461;DHT22;2243;48.812;9.232;2023-12-20T05:31:27;6.40;99.90
4461;DHT22;2243;48.812;9.232;2023-12-20T05:33:58;6.40;99.90
4461;DHT22;2243;48.812;9.232;2023-12-20T05:36:29;6.40;99.90
4461;DHT22;2243;48.812;9.232;2023-12-20T05:39:00;6.40;99.90
4461;DHT22;2243;48.812;9.232;2023-12-20T05:41:31;6.40;99.90
4461;DHT22;2243;48.812;9.232;2023-12-20T05:44:02;6.40;99.90
4461;DHT22;2243;48.812;9.232;2023-12-20T05:46:33;6.60;99.90
4461;DHT22;2243;48.812;9.232;2023-12-20T05:49:04;6.60;99.90
4461;DHT22;2243;48.812;9.232;2023-12-20T05:51:35;6.40;99.90
4461;DHT22;2243;48.812;9.232;2023-12-20T05:54:07;6.40;99.90
4461;DHT22;2243;48.812;9.232;2023-12-20T05:56:39;6.30;99.90
4461;DHT22;2243;48.812;9.232;2023-12-20T05:59:10;6.30;99.90
4461;DHT22;2243;48.812;9.232;2023-12-20T06:01:41;6.30;99.90
4461;DHT22;2243;48.812;9.232;2023-12-20T06:04:12;6.30;99.90
4461;DHT22;2243;48.812;9.232;2023-12-20T06:06:44;6.30;99.90
4461;DHT22;2243;48.812;9.232;2023-12-20T06:09:15;6.30;99.90
4461;DHT22;2243;48.812;9.232;2023-12-20T06:11:46;6.40;99.90
4461;DHT22;2243;48.812;9.232;2023-12-20T06:14:17;6.30;99.90
4461;DHT22;2243;48.812;9.232;2023-12-20T06:16:48;6.30;99.90
4461;DHT22;2243;48.812;9.232;2023-12-20T06:19:19;6.30;99.90
4461;DHT22;2243;48.812;9.232;2023-12-20T06:21:50;6.30;99.90
4461;DHT22;2243;48.812;9.232;2023-12-20T06:24:21;6.30;99.90
4461;DHT22;2243;48.812;9.232;2023-12-20T06:26:52;6.30;99.90
4461;DHT22;2243;48.812;9.232;2023-12-20T06:29:23;6.30;99.90
4461;DHT22;2243;48.812;9.232;2023-12-20T06:31:54;6.30;99.90
4461;DHT22;2243;48.812;9.232;2023-12-20T06:34:25;6.40;99.90
4461;DHT22;2243;48.812;9.232;2023-12-20T06:36:56;6.40;99.90
4461;DHT22;2243;48.812;9.232;2023-12-20T06:39:27;6.40;99.90
4461;DHT22;2243;48.812;9.232;2023-12-20T06:41:58;6.40;99.90
4461;DHT22;2243;48.812;9.232;2023-12-20T06:44:29;6.40;99.90
4461;DHT22;2243;48.812;9.232;2023-12-20T06:47:00;6.40;99.90
4461;DHT22;2243;48.812;9.232;2023-12-20T06:49:31;6.50;99.90
4461;DHT22;2243;48.812;9.232;2023-12-20T06:52:03;6.50;99.90
4461;DHT22;2243;48.812;9.232;2023-12-20T06:54:34;6.50;99.90
4461;DHT22;2243;48.812;9.232;2023-12-20T06:57:05;6.50;99.90
4461;DHT22;2243;48.812;9.232;2023-12-20T06:59:40;6.50;99.90
4461;DHT22;2243;48.812;9.232;2023-12-20T07:02:11;6.50;99.90
4461;DHT22;2243;48.812;9.232;2023-12-20T07:04:45;6.50;99.90
4461;DHT22;2243;48.812;9.232;2023-12-20T07:07:16;6.50;99.90
4461;DHT22;2243;48.812;9.232;2023-12-20T07:09:47;6.50;99.90
4461;DHT22;2243;48.812;9.232;2023-12-20T07:12:18;6.50;99.90
4461;DHT22;2243;48.812;9.232;2023-12-20T07:14:50;6.50;99.90
4461;DHT22;2243;48.812;9.232;2023-12-20T07:17:20;6.50;99.90
4461;DHT22;2243;48.812;9.232;2023-12-20T07:19:52;6.60;99.90
4461;DHT22;2243;48.812;9.232;2023-12-20T07:22:24;6.60;99.90
4461;DHT22;2243;48.812;9.232;2023-12-20T07:24:55;6.60;99.90
4461;DHT22;2243;48.812;9.232;2023-12-20T07:27:26;6.60;99.90
4461;DHT22;2243;48.812;9.232;2023-12-20T07:29:57;6.60;99.90
4461;DHT22;2243;48.812;9.232;2023-12-20T07:32:28;6.50;99.90
4461;DHT22;2243;48.812;9.232;2023-12-20T07:34:59;6.40;99.90
4461;DHT22;2243;48.812;9.232;2023-12-20T07:37:31;6.40;99.90
4461;DHT22;2243;48.812;9.232;2023-12-20T07:40:02;6.30;99.90
4461;DHT22;2243;48.812;9.232;2023-12-20T07:42:34;6.30;99.90
4461;DHT22;2243;48.812;9.232;2023-12-20T07:45:05;6.30;99.90
4461;DHT22;2243;48.812;9.232;2023-12-20T07:47:36;6.30;99.90
4461;DHT22;2243;48.812;9.232;2023-12-20T07:50:07;6.30;99.90
4461;DHT22;2243;48.812;9.232;2023-12-20T07:52:39;6.40;99.90
4461;DHT22;2243;48.812;9.232;2023-12-20T07:55:09;6.30;99.90
4461;DHT22;2243;48.812;9.232;2023-12-20T07:57:40;6.30;99.90
4461;DHT22;2243;48.812;9.232;2023-12-20T08:00:12;6.30;99.90
4461;DHT22;2243;48.812;9.232;2023-12-20T08:02:43;6.20;99.90
4461;DHT22;2243;48.812;9.232;2023-12-20T08:05:14;6.20;99.90
4461;DHT22;2243;48.812;9.232;2023-12-20T08:07:48;6.30;99.90
4461;DHT22;2243;48.812;9.232;2023-12-20T08:10:19;6.20;99.90
4461;DHT22;2243;48.812;9.232;2023-12-20T08:12:50;6.20;99.90
4461;DHT22;2243;48.812;9.232;2023-12-20T08:15:21;6.20;99.90
4461;DHT22;2243;48.812;9.232;2023-12-20T08:17:52;6.20;99.90
4461;DHT22;2243;48.812;9.232;2023-12-20T08:20:24;6.10;99.90
4461;DHT22;2243;48.812;9.232;2023-12-20T08:23:09;6.10;99.90
4461;DHT22;2243;48.812;9.232;2023-12-20T08:25:40;6.10;99.90
4461;DHT22;2243;48.812;9.232;2023-12-20T08:28:11;6.00;99.90
4461;DHT22;2243;48.812;9.232;2023-12-20T08:30:42;6.00;99.90
4461;DHT22;2243;48.812;9.232;2023-12-20T08:33:13;6.00;99.90
4461;DHT22;2243;48.812;9.232;2023-12-20T08:35:44;6.00;99.90
4461;DHT22;2243;48.812;9.232;2023-12-20T08:38:15;6.00;99.90
4461;DHT22;2243;48.812;9.232;2023-12-20T08:40:47;6.00;99.90
4461;DHT22;2243;48.812;9.232;2023-12-20T08:43:19;6.00;99.90
4461;DHT22;2243;48.812;9.232;2023-12-20T08:45:50;6.00;99.90
4461;DHT22;2243;48.812;9.232;2023-12-20T08:48:21;6.00;99.90
4461;DHT22;2243;48.812;9.232;2023-12-20T08:50:52;5.90;99.90
4461;DHT22;2243;48.812;9.232;2023-12-20T08:53:23;5.90;99.90
4461;DHT22;2243;48.812;9.232;2023-12-20T08:55:56;5.80;99.90
4461;DHT22;2243;48.812;9.232;2023-12-20T08:58:29;5.80;99.90
4461;DHT22;2243;48.812;9.232;2023-12-20T09:01:01;5.80;99.90
4461;DHT22;2243;48.812;9.232;2023-12-20T09:03:32;5.80;99.90
4461;DHT22;2243;48.812;9.232;2023-12-20T09:06:03;5.90;99.90
4461;DHT22;2243;48.812;9.232;2023-12-20T09:08:36;5.90;99.90
4461;DHT22;2243;48.812;9.232;2023-12-20T09:11:07;6.00;99.90
4461;DHT22;2243;48.812;9.232;2023-12-20T09:13:41;6.00;99.90
4461;DHT22;2243;48.812;9.232;2023-12-20T09:16:12;6.00;99.90
4461;DHT22;2243;48.812;9.232;2023-12-20T09:18:46;6.00;99.90
4461;DHT22;2243;48.812;9.232;2023-12-20T09:21:17;6.10;99.90
4461;DHT22;2243;48.812;9.232;2023-12-20T09:23:48;6.00;99.90
4461;DHT22;2243;48.812;9.232;2023-12-20T09:26:20;6.10;99.90
4461;DHT22;2243;48.812;9.232;2023-12-20T09:28:52;6.10;99.90
4461;DHT22;2243;48.812;9.232;2023-12-20T09:31:25;6.10;99.90
4461;DHT22;2243;48.812;9.232;2023-12-20T09:34:05;6.10;99.90
4461;DHT22;2243;48.812;9.232;2023-12-20T09:36:36;6.20;99.90
4461;DHT22;2243;48.812;9.232;2023-12-20T09:39:12;6.20;99.90
4461;DHT22;2243;48.812;9.232;2023-12-20T09:41:45;6.30;99.90
4461;DHT22;2243;48.812;9.232;2023-12-20T09:44:31;6.30;99.90
4461;DHT22;2243;48.812;9.232;2023-12-20T09:47:06;6.40;99.90
4461;DHT22;2243;48.812;9.232;2023-12-20T09:49:37;6.40;99.90
4461;DHT22;2243;48.812;9.232;2023-12-20T09:52:09;6.40;99.90
4461;DHT22;2243;48.812;9.232;2023-12-20T09:54:42;6.40;99.90
4461;DHT22;2243;48.812;9.232;2023-12-20T09:57:14;6.50;99.90
4461;DHT22;2243;48.812;9.232;2023-12-20T09:59:45;6.40;99.90
4461;DHT22;2243;48.812;9.232;2023-12-20T10:02:18;6.50;99.90
4461;DHT22;2243;48.812;9.232;2023-12-20T10:04:52;6.50;99.90
4461;DHT22;2243;48.812;9.232;2023-12-20T10:07:25;6.60;99.90
4461;DHT22;2243;48.812;9.232;2023-12-20T10:09:56;6.50;99.90
4461;DHT22;2243;48.812;9.232;2023-12-20T10:12:28;6.60;99.90
4461;DHT22;2243;48.812;9.232;2023-12-20T10:15:04;6.60;99.90
4461;DHT22;2243;48.812;9.232;2023-12-20T10:17:36;6.70;99.90
4461;DHT22;2243;48.812;9.232;2023-12-20T10:20:07;6.80;99.90
4461;DHT22;2243;48.812;9.232;2023-12-20T10:22:40;6.90;99.90
4461;DHT22;2243;48.812;9.232;2023-12-20T10:25:11;6.90;99.90
4461;DHT22;2243;48.812;9.232;2023-12-20T10:27:43;6.90;99.90
4461;DHT22;2243;48.812;9.232;2023-12-20T10:30:14;6.80;99.90
4461;DHT22;2243;48.812;9.232;2023-12-20T10:32:45;6.60;99.90
4461;DHT22;2243;48.812;9.232;2023-12-20T10:35:16;6.60;99.90
4461;DHT22;2243;48.812;9.232;2023-12-20T10:37:48;6.60;99.90
4461;DHT22;2243;48.812;9.232;2023-12-20T10:40:23;6.60;99.90
4461;DHT22;2243;48.812;9.232;2023-12-20T10:42:55;6.60;99.90
4461;DHT22;2243;48.812;9.232;2023-12-20T10:45:27;6.60;99.90
4461;DHT22;2243;48.812;9.232;2023-12-20T10:47:58;6.60;99.90
4461;DHT22;2243;48.812;9.232;2023-12-20T10:50:35;6.60;99.90
4461;DHT22;2243;48.812;9.232;2023-12-20T10:53:12;6.60;99.90
4461;DHT22;2243;48.812;9.232;2023-12-20T10:55:49;6.60;99.90
4461;DHT22;2243;48.812;9.232;2023-12-20T10:58:24;6.50;99.90
4461;DHT22;2243;48.812;9.232;2023-12-20T11:01:00;6.50;99.90
4461;DHT22;2243;48.812;9.232;2023-12-20T11:03:38;6.50;99.90
4461;DHT22;2243;48.812;9.232;2023-12-20T11:06:35;6.50;99.90
4461;DHT22;2243;48.812;9.232;2023-12-20T11:09:23;6.40;99.90
4461;DHT22;2243;48.812;9.232;2023-12-20T11:15:21;6.60;99.90
4461;DHT22;2243;48.812;9.232;2023-12-20T11:17:56;6.70;99.90
4461;DHT22;2243;48.812;9.232;2023-12-20T11:20:43;6.80;99.90
4461;DHT22;2243;48.812;9.232;2023-12-20T11:23:17;6.70;99.90
4461;DHT22;2243;48.812;9.232;2023-12-20T11:25:56;6.70;99.90
4461;DHT22;2243;48.812;9.232;2023-12-20T11:28:30;6.60;99.90
4461;DHT22;2243;48.812;9.232;2023-12-20T11:31:02;6.60;99.90
4461;DHT22;2243;48.812;9.232;2023-12-20T11:33:38;6.60;99.90
4461;DHT22;2243;48.812;9.232;2023-12-20T11:36:14;6.70;99.90
4461;DHT22;2243;48.812;9.232;2023-12-20T11:38:56;6.70;99.90
4461;DHT22;2243;48.812;9.232;2023-12-20T11:41:28;6.70;99.90
4461;DHT22;2243;48.812;9.232;2023-12-20T11:44:00;6.60;99.90
4461;DHT22;2243;48.812;9.232;2023-12-20T11:46:31;6.60;99.90
4461;DHT22;2243;48.812;9.232;2023-12-20T11:49:04;6.60;99.90
4461;DHT22;2243;48.812;9.232;2023-12-20T11:51:35;6.60;99.90
4461;DHT22;2243;48.812;9.232;2023-12-20T11:54:11;6.60;99.90
4461;DHT22;2243;48.812;9.232;2023-12-20T11:56:50;6.70;99.90
4461;DHT22;2243;48.812;9.232;2023-12-20T11:59:23;6.60;99.90
4461;DHT22;2243;48.812;9.232;2023-12-20T12:01:56;6.70;99.90
4461;DHT22;2243;48.812;9.232;2023-12-20T12:04:32;6.60;99.90
4461;DHT22;2243;48.812;9.232;2023-12-20T12:07:06;6.60;99.90
4461;DHT22;2243;48.812;9.232;2023-12-20T12:09:38;6.70;99.90
4461;DHT22;2243;48.812;9.232;2023-12-20T12:12:10;6.70;99.90
4461;DHT22;2243;48.812;9.232;2023-12-20T12:14:44;6.70;99.90
4461;DHT22;2243;48.812;9.232;2023-12-20T12:17:16;6.80;99.90
4461;DHT22;2243;48.812;9.232;2023-12-20T12:19:47;6.80;99.90
4461;DHT22;2243;48.812;9.232;2023-12-20T12:22:21;6.90;99.90
4461;DHT22;2243;48.812;9.232;2023-12-20T12:25:10;7.00;99.90
4461;DHT22;2243;48.812;9.232;2023-12-20T12:27:45;7.00;99.90
4461;DHT22;2243;48.812;9.232;2023-12-20T12:30:16;7.10;99.90
4461;DHT22;2243;48.812;9.232;2023-12-20T12:32:53;7.10;99.90
4461;DHT22;2243;48.812;9.232;2023-12-20T12:35:26;7.20;99.90
4461;DHT22;2243;48.812;9.232;2023-12-20T12:37:59;7.20;99.90
4461;DHT22;2243;48.812;9.232;2023-12-20T12:40:34;7.20;99.90
4461;DHT22;2243;48.812;9.232;2023-12-20T12:43:07;7.40;99.90
4461;DHT22;2243;48.812;9.232;2023-12-20T12:45:38;7.60;99.90
4461;DHT22;2243;48.812;9.232;2023-12-20T12:48:09;7.60;99.90
4461;DHT22;2243;48.812;9.232;2023-12-20T12:50:41;7.60;99.90
4461;DHT22;2243;48.812;9.232;2023-12-20T12:53:12;7.60;99.90
4461;DHT22;2243;48.812;9.232;2023-12-20T12:55:45;7.60;99.90
4461;DHT22;2243;48.812;9.232;2023-12-20T12:58:17;7.50;99.90
4461;DHT22;2243;48.812;9.232;2023-12-20T13:00:48;7.50;99.90
4461;DHT22;2243;48.812;9.232;2023-12-20T13:03:21;7.40;99.90
4461;DHT22;2243;48.812;9.232;2023-12-20T13:05:54;7.20;99.90
4461;DHT22;2243;48.812;9.232;2023-12-20T13:08:26;7.30;99.90
4461;DHT22;2243;48.812;9.232;2023-12-20T13:11:00;7.30;99.90
4461;DHT22;2243;48.812;9.232;2023-12-20T13:13:37;7.20;99.90
4461;DHT22;2243;48.812;9.232;2023-12-20T13:16:08;7.20;99.90
4461;DHT22;2243;48.812;9.232;2023-12-20T13:18:42;7.20;99.90
4461;DHT22;2243;48.812;9.232;2023-12-20T13:21:13;7.20;99.90
4461;DHT22;2243;48.812;9.232;2023-12-20T13:23:44;7.30;99.90
4461;DHT22;2243;48.812;9.232;2023-12-20T13:26:20;7.30;99.90
4461;DHT22;2243;48.812;9.232;2023-12-20T13:28:51;7.30;99.90
4461;DHT22;2243;48.812;9.232;2023-12-20T13:31:22;7.30;99.90
4461;DHT22;2243;48.812;9.232;2023-12-20T13:33:56;7.30;99.90
4461;DHT22;2243;48.812;9.232;2023-12-20T13:36:27;7.30;99.90
4461;DHT22;2243;48.812;9.232;2023-12-20T13:39:01;7.30;99.90
4461;DHT22;2243;48.812;9.232;2023-12-20T13:41:34;7.40;99.90
4461;DHT22;2243;48.812;9.232;2023-12-20T13:44:08;7.40;99.90
4461;DHT22;2243;48.812;9.232;2023-12-20T13:46:40;7.30;99.90
4461;DHT22;2243;48.812;9.232;2023-12-20T13:49:12;7.30;99.90
4461;DHT22;2243;48.812;9.232;2023-12-20T13:51:46;7.20;99.90
4461;DHT22;2243;48.812;9.232;2023-12-20T13:54:18;7.20;99.90
4461;DHT22;2243;48.812;9.232;2023-12-20T13:56:54;7.20;99.90
4461;DHT22;2243;48.812;9.232;2023-12-20T13:59:45;7.30;99.90
4461;DHT22;2243;48.812;9.232;2023-12-20T14:02:16;7.30;99.90
4461;DHT22;2243;48.812;9.232;2023-12-20T14:04:50;7.30;99.90
4461;DHT22;2243;48.812;9.232;2023-12-20T14:07:21;7.30;99.90
4461;DHT22;2243;48.812;9.232;2023-12-20T14:09:52;7.20;99.90
4461;DHT22;2243;48.812;9.232;2023-12-20T14:12:23;7.20;99.90
4461;DHT22;2243;48.812;9.232;2023-12-20T14:14:54;7.20;99.90
4461;DHT22;2243;48.812;9.232;2023-12-20T14:17:28;7.10;99.90
4461;DHT22;2243;48.812;9.232;2023-12-20T14:20:03;7.00;99.90
4461;DHT22;2243;48.812;9.232;2023-12-20T14:22:35;7.10;99.90
4461;DHT22;2243;48.812;9.232;2023-12-20T14:25:14;7.00;99.90
4461;DHT22;2243;48.812;9.232;2023-12-20T14:27:50;7.00;99.90
4461;DHT22;2243;48.812;9.232;2023-12-20T14:30:21;7.00;99.90
4461;DHT22;2243;48.812;9.232;2023-12-20T14:32:52;6.90;99.90
4461;DHT22;2243;48.812;9.232;2023-12-20T14:35:23;6.90;99.90
4461;DHT22;2243;48.812;9.232;2023-12-20T14:37:54;6.70;99.90
4461;DHT22;2243;48.812;9.232;2023-12-20T14:40:25;6.70;99.90
4461;DHT22;2243;48.812;9.232;2023-12-20T14:42:56;6.70;99.90
4461;DHT22;2243;48.812;9.232;2023-12-20T14:45:27;6.80;99.90
4461;DHT22;2243;48.812;9.232;2023-12-20T14:48:09;6.80;99.90
4461;DHT22;2243;48.812;9.232;2023-12-20T14:50:42;6.70;99.90
4461;DHT22;2243;48.812;9.232;2023-12-20T14:53:14;6.70;99.90
4461;DHT22;2243;48.812;9.232;2023-12-20T14:55:53;6.80;99.90
4461;DHT22;2243;48.812;9.232;2023-12-20T14:58:24;6.70;99.90
4461;DHT22;2243;48.812;9.232;2023-12-20T15:00:55;6.70;99.90
4461;DHT22;2243;48.812;9.232;2023-12-20T15:03:26;6.60;99.90
4461;DHT22;2243;48.812;9.232;2023-12-20T15:05:57;6.50;99.90
4461;DHT22;2243;48.812;9.232;2023-12-20T15:08:29;6.50;99.90
4461;DHT22;2243;48.812;9.232;2023-12-20T15:11:01;6.40;99.90
4461;DHT22;2243;48.812;9.232;2023-12-20T15:13:34;6.40;99.90
4461;DHT22;2243;48.812;9.232;2023-12-20T15:16:05;6.30;99.90
4461;DHT22;2243;48.812;9.232;2023-12-20T15:18:36;6.30;99.90
4461;DHT22;2243;48.812;9.232;2023-12-20T15:21:08;6.40;99.90
4461;DHT22;2243;48.812;9.232;2023-12-20T15:23:39;6.40;99.90
4461;DHT22;2243;48.812;9.232;2023-12-20T15:26:16;6.40;99.90
4461;DHT22;2243;48.812;9.232;2023-12-20T15:28:47;6.40;99.90
4461;DHT22;2243;48.812;9.232;2023-12-20T15:31:18;6.40;99.90
4461;DHT22;2243;48.812;9.232;2023-12-20T15:33:50;6.40;99.90
4461;DHT22;2243;48.812;9.232;2023-12-20T15:36:26;6.40;99.90
4461;DHT22;2243;48.812;9.232;2023-12-20T15:43:28;6.40;99.90
4461;DHT22;2243;48.812;9.232;2023-12-20T15:46:00;6.40;99.90
4461;DHT22;2243;48.812;9.232;2023-12-20T15:48:36;6.50;99.90
4461;DHT22;2243;48.812;9.232;2023-12-20T15:51:10;6.60;99.90
4461;DHT22;2243;48.812;9.232;2023-12-20T15:53:41;6.60;99.90
4461;DHT22;2243;48.812;9.232;2023-12-20T15:56:12;6.60;99.90
4461;DHT22;2243;48.812;9.232;2023-12-20T15:58:43;6.60;99.90
4461;DHT22;2243;48.812;9.232;2023-12-20T16:01:22;6.60;99.90
4461;DHT22;2243;48.812;9.232;2023-12-20T16:03:53;6.60;99.90
4461;DHT22;2243;48.812;9.232;2023-12-20T16:06:29;6.60;99.90
4461;DHT22;2243;48.812;9.232;2023-12-20T16:09:00;6.60;99.90
4461;DHT22;2243;48.812;9.232;2023-12-20T16:11:31;6.50;99.90
4461;DHT22;2243;48.812;9.232;2023-12-20T16:14:15;6.40;99.90
4461;DHT22;2243;48.812;9.232;2023-12-20T16:16:48;6.50;99.90
4461;DHT22;2243;48.812;9.232;2023-12-20T16:19:22;6.60;99.90
4461;DHT22;2243;48.812;9.232;2023-12-20T16:21:53;6.60;99.90
4461;DHT22;2243;48.812;9.232;2023-12-20T16:24:25;6.60;99.90
4461;DHT22;2243;48.812;9.232;2023-12-20T16:26:56;6.50;99.90
4461;DHT22;2243;48.812;9.232;2023-12-20T16:29:27;6.50;99.90
4461;DHT22;2243;48.812;9.232;2023-12-20T16:31:57;6.50;99.90
4461;DHT22;2243;48.812;9.232;2023-12-20T16:34:28;6.50;99.90
4461;DHT22;2243;48.812;9.232;2023-12-20T16:37:00;6.50;99.90
4461;DHT22;2243;48.812;9.232;2023-12-20T16:39:32;6.40;99.90
4461;DHT22;2243;48.812;9.232;2023-12-20T16:42:04;6.40;99.90
4461;DHT22;2243;48.812;9.232;2023-12-20T16:44:35;6.30;99.90
4461;DHT22;2243;48.812;9.232;2023-12-20T16:47:06;6.40;99.90
4461;DHT22;2243;48.812;9.232;2023-12-20T16:49:37;6.30;99.90
4461;DHT22;2243;48.812;9.232;2023-12-20T16:52:08;6.40;99.90
4461;DHT22;2243;48.812;9.232;2023-12-20T16:54:39;6.40;99.90
4461;DHT22;2243;48.812;9.232;2023-12-20T16:57:10;6.40;99.90